Time;durP1;ratioP1;P1;durP2;ratioP2;P2;SDS_P1;SDS_P2;PMS_P1;PMS_P2;Temp;Humidity;BMP_temperature;BMP_pressure;BME280_temperature;BME280_humidity;BME280_pressure;Samples;Min_cycle;Max_cycle;Signal;HPM_P1;HPM_P2
2020/12/25 00:00:40;;;;;;;2.37;2.02;;;;;;;3.86;81.23;99065.09;1725916;83;26356;-54
2020/12/25 00:03:08;;;;;;;2.62;2.17;;;;;;;3.84;81.16;99073.41;1729412;82;26240;-55
2020/12/25 00:05:34;;;;;;;3.75;2.70;;;;;;;3.82;81.03;99076.92;1728933;82;25747;-55
2020/12/25 00:08:01;;;;;;;5.17;3.00;;;;;;;3.81;81.32;99085.25;1719785;81;26373;-53
2020/12/25 00:10:28;;;;;;;3.65;3.10;;;;;;;3.82;81.39;99082.28;1710658;83;25783;-55
2020/12/25 00:12:54;;;;;;;5.80;3.17;;;;;;;3.81;81.24;99094.05;1710814;82;25574;-54
2020/12/25 00:15:21;;;;;;;3.35;2.72;;;;;;;3.81;81.45;99094.61;1710465;83;25957;-55
2020/12/25 00:17:48;;;;;;;3.67;2.80;;;;;;;3.84;81.49;99095.36;1711000;83;25826;-55
2020/12/25 00:20:14;;;;;;;3.35;2.62;;;;;;;3.79;81.41;99094.11;1706077;84;25598;-55
2020/12/25 00:22:41;;;;;;;3.45;2.60;;;;;;;3.85;81.36;99103.65;1706021;84;25709;-55
2020/12/25 00:25:07;;;;;;;3.12;2.55;;;;;;;3.85;81.35;99102.31;1705999;84;25763;-54
2020/12/25 00:27:34;;;;;;;2.50;2.05;;;;;;;3.84;81.19;99102.84;1706053;84;26015;-54
2020/12/25 00:30:01;;;;;;;4.53;2.77;;;;;;;3.83;81.33;99105.80;1705811;84;25825;-55
2020/12/25 00:32:28;;;;;;;3.77;2.80;;;;;;;3.81;81.14;99109.31;1705926;84;25740;-55
2020/12/25 00:34:55;;;;;;;4.72;2.50;;;;;;;3.81;81.27;99105.30;1681089;84;25663;-55
2020/12/25 00:37:23;;;;;;;3.35;2.47;;;;;;;3.79;81.28;99116.84;1706097;84;25604;-55
2020/12/25 00:39:50;;;;;;;2.75;2.25;;;;;;;3.77;81.23;99123.03;1705277;84;25727;-55
2020/12/25 00:42:16;;;;;;;3.37;2.33;;;;;;;3.76;81.19;99123.56;1705868;84;25792;-56
2020/12/25 00:44:43;;;;;;;3.12;2.20;;;;;;;3.74;81.17;99128.41;1705845;84;25344;-57
2020/12/25 00:47:10;;;;;;;3.85;2.60;;;;;;;3.73;81.39;99133.53;1706352;84;25695;-56
2020/12/25 00:49:36;;;;;;;3.17;2.10;;;;;;;3.73;81.36;99141.00;1705916;84;25990;-56
2020/12/25 00:52:03;;;;;;;3.60;2.30;;;;;;;3.71;81.23;99123.12;1706158;84;26357;-54
2020/12/25 00:54:29;;;;;;;2.75;1.85;;;;;;;3.70;81.24;99124.20;1706086;84;25697;-54
2020/12/25 00:56:56;;;;;;;2.02;1.75;;;;;;;3.69;81.24;99124.48;1706025;84;25927;-57
2020/12/25 00:59:23;;;;;;;3.02;1.80;;;;;;;3.68;81.27;99129.05;1720543;82;25642;-55
2020/12/25 01:01:52;;;;;;;3.60;2.17;;;;;;;3.67;81.43;99130.12;1722323;83;25869;-54
2020/12/25 01:04:20;;;;;;;3.15;2.22;;;;;;;3.68;81.44;99138.95;1722146;83;25936;-57
2020/12/25 01:06:47;;;;;;;2.77;2.00;;;;;;;3.67;81.46;99140.81;1722267;83;25759;-56
2020/12/25 01:09:14;;;;;;;3.12;2.20;;;;;;;3.64;81.29;99138.72;1720920;83;25644;-56
2020/12/25 01:11:41;;;;;;;6.20;3.08;;;;;;;3.61;81.17;99142.00;1722282;83;25723;-56
2020/12/25 01:14:08;;;;;;;3.47;2.77;;;;;;;3.55;80.93;99147.16;1721991;83;25627;-56
2020/12/25 01:16:35;;;;;;;2.50;1.95;;;;;;;3.51;80.96;99155.52;1722091;83;25978;-55
2020/12/25 01:19:02;;;;;;;3.05;2.30;;;;;;;3.45;81.17;99153.44;1722039;83;25903;-56
2020/12/25 01:21:29;;;;;;;3.00;2.62;;;;;;;3.43;81.26;99156.16;1722354;83;25628;-56
2020/12/25 01:23:55;;;;;;;3.75;2.35;;;;;;;3.39;81.48;99165.83;1722297;83;25677;-56
2020/12/25 01:26:22;;;;;;;2.42;2.17;;;;;;;3.35;81.53;99169.62;1722008;83;25829;-57
2020/12/25 01:28:49;;;;;;;3.47;2.02;;;;;;;3.33;81.60;99169.12;1722244;83;26270;-56
2020/12/25 01:31:16;;;;;;;3.08;2.37;;;;;;;3.29;81.71;99170.79;1721802;83;25668;-56
2020/12/25 01:33:42;;;;;;;3.37;2.83;;;;;;;3.26;81.74;99180.16;1722425;83;25706;-56
2020/12/25 01:36:09;;;;;;;3.58;2.55;;;;;;;3.22;81.77;99173.81;1722086;83;26322;-55
2020/12/25 01:38:36;;;;;;;4.17;2.92;;;;;;;3.17;81.85;99185.35;1722415;83;25688;-54
2020/12/25 01:41:03;;;;;;;3.17;2.40;;;;;;;3.14;81.92;99191.81;1722238;83;26739;-55
2020/12/25 01:43:29;;;;;;;3.77;2.30;;;;;;;3.11;82.14;99195.84;1699425;83;25726;-57
2020/12/25 01:45:56;;;;;;;4.25;3.10;;;;;;;3.09;82.25;99200.68;1722237;83;25636;-54
2020/12/25 01:48:23;;;;;;;4.62;3.20;;;;;;;3.08;82.52;99200.97;1722182;83;25870;-54
2020/12/25 01:50:51;;;;;;;5.25;3.90;;;;;;;3.08;82.81;99212.47;1722235;83;25827;-54
2020/12/25 01:53:20;;;;;;;6.10;3.80;;;;;;;3.09;83.06;99213.25;1722225;83;25796;-55
2020/12/25 01:55:48;;;;;;;5.30;3.95;;;;;;;3.10;83.28;99212.97;1722207;83;25746;-55
2020/12/25 01:58:17;;;;;;;5.95;4.22;;;;;;;3.12;83.37;99212.69;1726295;81;25712;-54
2020/12/25 02:00:49;;;;;;;7.22;4.72;;;;;;;3.12;83.44;99217.48;1735127;82;25741;-55
2020/12/25 02:03:16;;;;;;;9.03;5.10;;;;;;;3.12;83.52;99209.47;1735568;82;25737;-54
2020/12/25 02:05:44;;;;;;;8.88;5.05;;;;;;;3.10;83.53;99212.97;1735016;82;25797;-54
2020/12/25 02:08:12;;;;;;;7.08;5.00;;;;;;;3.09;83.67;99219.93;1733640;79;25687;-56
2020/12/25 02:10:39;;;;;;;7.70;5.70;;;;;;;3.07;83.70;99217.55;1734916;82;26386;-54
2020/12/25 02:13:07;;;;;;;8.83;5.45;;;;;;;3.05;83.87;99223.72;1708158;82;26477;-55
2020/12/25 02:15:35;;;;;;;8.25;5.75;;;;;;;3.03;83.94;99228.55;1735081;82;25727;-54
2020/12/25 02:18:03;;;;;;;6.80;5.08;;;;;;;3.01;84.06;99229.91;1735333;82;26535;-55
2020/12/25 02:20:30;;;;;;;5.90;5.15;;;;;;;3.01;84.21;99237.38;1735075;82;25714;-55
2020/12/25 02:22:57;;;;;;;7.85;5.62;;;;;;;3.02;84.68;99235.52;1735238;82;25701;-54
2020/12/25 02:25:24;;;;;;;10.43;7.90;;;;;;;2.99;84.51;99232.31;1735241;82;25672;-54
2020/12/25 02:27:51;;;;;;;9.25;6.20;;;;;;;3.02;84.63;99226.16;1735413;82;25728;-56
2020/12/25 02:30:18;;;;;;;8.93;5.85;;;;;;;3.03;84.77;99240.58;1735328;82;26679;-55
2020/12/25 02:32:44;;;;;;;8.20;6.30;;;;;;;3.03;84.91;99247.26;1735481;82;25700;-55
2020/12/25 02:35:11;;;;;;;7.40;6.22;;;;;;;3.04;84.97;99244.03;1735061;82;25625;-55
2020/12/25 02:37:38;;;;;;;8.33;6.22;;;;;;;3.05;84.95;99244.27;1735572;82;25732;-55
2020/12/25 02:40:05;;;;;;;9.43;5.72;;;;;;;3.05;85.09;99258.45;1735196;82;26365;-55
2020/12/25 02:42:32;;;;;;;8.78;5.55;;;;;;;3.06;85.21;99261.91;1735611;82;26300;-56
2020/12/25 02:44:59;;;;;;;12.70;6.08;;;;;;;3.07;85.36;99266.19;1734954;82;25663;-55
2020/12/25 02:47:26;;;;;;;8.55;6.00;;;;;;;3.09;85.37;99270.70;1735606;82;26253;-55
2020/12/25 02:49:52;;;;;;;7.80;5.65;;;;;;;3.10;85.41;99274.42;1735054;82;25763;-55
2020/12/25 02:52:19;;;;;;;8.00;5.45;;;;;;;3.11;85.45;99281.89;1735416;82;26338;-55
2020/12/25 02:54:46;;;;;;;8.33;5.35;;;;;;;3.12;85.45;99284.28;1735169;82;28043;-55
2020/12/25 02:57:12;;;;;;;8.08;5.40;;;;;;;3.12;85.53;99285.63;1735240;82;26325;-55
2020/12/25 02:59:39;;;;;;;7.75;5.33;;;;;;;3.14;85.53;99288.02;1735558;82;26352;-55
2020/12/25 03:02:06;;;;;;;6.90;5.10;;;;;;;3.15;85.66;99298.42;1735806;82;25652;-55
2020/12/25 03:04:32;;;;;;;8.55;4.85;;;;;;;3.15;85.63;99298.42;1735328;82;25797;-56
2020/12/25 03:06:59;;;;;;;6.40;4.78;;;;;;;3.17;85.60;99303.48;1735967;82;26661;-55
2020/12/25 03:09:26;;;;;;;8.45;4.83;;;;;;;3.18;85.68;99307.73;1706566;81;25815;-55
2020/12/25 03:11:52;;;;;;;6.92;4.08;;;;;;;3.20;85.58;99311.46;1705072;84;25723;-55
2020/12/25 03:14:19;;;;;;;5.95;3.98;;;;;;;3.21;85.57;99311.73;1704775;84;25741;-55
2020/12/25 03:16:46;;;;;;;5.65;4.53;;;;;;;3.22;85.56;99319.98;1705105;84;26061;-55
2020/12/25 03:19:12;;;;;;;7.75;4.85;;;;;;;3.22;85.58;99318.65;1704938;84;26180;-55
2020/12/25 03:21:39;;;;;;;7.47;4.53;;;;;;;3.24;85.57;99325.86;1704933;84;25667;-53
2020/12/25 03:24:06;;;;;;;6.80;4.60;;;;;;;3.24;85.51;99321.86;1680624;84;25792;-54
2020/12/25 03:26:32;;;;;;;6.55;4.45;;;;;;;3.24;85.44;99328.54;1704823;84;25611;-54
2020/12/25 03:28:59;;;;;;;5.90;4.45;;;;;;;3.23;85.22;99341.63;1705143;84;25704;-53
2020/12/25 03:31:25;;;;;;;5.67;4.45;;;;;;;3.20;85.16;99339.52;1704766;84;26093;-54
2020/12/25 03:33:52;;;;;;;5.33;4.50;;;;;;;3.16;85.12;99336.63;1704749;84;25829;-56
2020/12/25 03:36:19;;;;;;;3.83;3.42;;;;;;;3.14;85.08;99340.13;1704475;84;26284;-56
2020/12/25 03:38:45;;;;;;;5.10;3.85;;;;;;;3.12;85.14;99338.27;1704637;84;25650;-56
2020/12/25 03:41:12;;;;;;;4.72;3.60;;;;;;;3.12;85.12;99338.27;1704812;84;25695;-55
2020/12/25 03:43:38;;;;;;;4.25;3.47;;;;;;;3.12;85.14;99344.41;1704747;84;26452;-56
2020/12/25 03:46:05;;;;;;;5.83;3.50;;;;;;;3.13;85.23;99351.88;1704554;84;25651;-54
2020/12/25 03:48:32;;;;;;;5.33;3.60;;;;;;;3.14;85.22;99362.28;1704652;84;25661;-53
2020/12/25 03:51:00;;;;;;;5.85;4.35;;;;;;;3.16;85.26;99356.66;1704646;84;25822;-53
2020/12/25 03:53:26;;;;;;;5.17;4.03;;;;;;;3.18;85.27;99362.52;1705011;84;25754;-55
2020/12/25 03:55:53;;;;;;;7.70;4.70;;;;;;;3.19;85.27;99365.45;1704516;84;26692;-54
2020/12/25 03:58:20;;;;;;;5.03;4.25;;;;;;;3.21;85.27;99363.30;1705313;81;25849;-54
2020/12/25 04:00:46;;;;;;;6.15;4.75;;;;;;;3.22;85.22;99371.58;1721976;83;25827;-54
2020/12/25 04:03:13;;;;;;;11.10;5.20;;;;;;;3.25;85.31;99379.56;1722362;83;25692;-53
2020/12/25 04:05:40;;;;;;;6.45;4.95;;;;;;;3.26;85.27;99377.94;1722080;83;25934;-54
2020/12/25 04:08:07;;;;;;;9.43;4.80;;;;;;;3.28;85.30;99379.79;1721362;82;25990;-54
2020/12/25 04:10:34;;;;;;;7.08;4.12;;;;;;;3.31;85.32;99374.43;1722169;83;25640;-53
2020/12/25 04:13:01;;;;;;;5.28;4.05;;;;;;;3.31;85.22;99379.23;1722279;83;25648;-53
2020/12/25 04:15:28;;;;;;;6.97;4.65;;;;;;;3.33;85.21;99378.95;1722039;83;25902;-57
2020/12/25 04:17:54;;;;;;;5.67;4.85;;;;;;;3.35;85.20;99382.95;1722193;83;25688;-56
2020/12/25 04:20:21;;;;;;;6.05;4.78;;;;;;;3.36;85.08;99387.74;1722066;83;26249;-54
2020/12/25 04:22:47;;;;;;;5.53;4.17;;;;;;;3.38;85.14;99390.92;1722200;83;26425;-52
2020/12/25 04:25:14;;;;;;;5.85;4.08;;;;;;;3.39;85.10;99393.87;1721980;83;25682;-54
2020/12/25 04:27:41;;;;;;;6.17;4.72;;;;;;;3.40;85.05;99402.12;1722495;83;25728;-54
2020/12/25 04:30:08;;;;;;;5.85;4.87;;;;;;;3.41;85.01;99405.62;1721765;83;26283;-54
2020/12/25 04:32:34;;;;;;;6.30;4.65;;;;;;;3.41;85.09;99409.08;1722578;82;25926;-54
2020/12/25 04:35:01;;;;;;;5.78;4.65;;;;;;;3.42;85.14;99412.54;1721788;82;25668;-55
2020/12/25 04:37:27;;;;;;;6.53;5.08;;;;;;;3.43;85.19;99408.80;1722310;83;25700;-55
2020/12/25 04:39:54;;;;;;;8.08;5.05;;;;;;;3.42;85.11;99411.99;1721821;83;26130;-55
2020/12/25 04:42:21;;;;;;;8.08;6.17;;;;;;;3.44;85.23;99400.50;1722107;83;25874;-55
2020/12/25 04:44:49;;;;;;;7.67;5.53;;;;;;;3.45;85.41;99407.42;1698956;83;26265;-56
2020/12/25 04:47:15;;;;;;;6.37;5.05;;;;;;;3.46;85.27;99406.91;1722160;83;25711;-57
2020/12/25 04:49:42;;;;;;;8.53;5.45;;;;;;;3.48;85.34;99406.86;1721674;83;25731;-55
2020/12/25 04:52:08;;;;;;;9.23;5.60;;;;;;;3.49;85.27;99406.31;1721700;82;25335;-57
2020/12/25 04:54:35;;;;;;;9.33;4.97;;;;;;;3.49;85.28;99412.48;1722297;82;25722;-55
2020/12/25 04:57:02;;;;;;;4.75;4.25;;;;;;;3.49;85.25;99403.64;1722421;83;26416;-56
2020/12/25 04:59:30;;;;;;;6.05;4.70;;;;;;;3.48;85.19;99414.88;1726909;82;25665;-56
2020/12/25 05:02:02;;;;;;;5.80;4.65;;;;;;;3.50;85.21;99413.27;1735923;81;26285;-55
2020/12/25 05:04:28;;;;;;;8.00;4.70;;;;;;;3.50;85.31;99418.06;1735479;82;25837;-54
2020/12/25 05:06:55;;;;;;;6.03;4.12;;;;;;;3.51;85.32;99412.20;1736031;82;25733;-54
2020/12/25 05:09:25;;;;;;;5.33;4.15;;;;;;;3.51;85.31;99411.65;1733869;81;29211;-54
2020/12/25 05:11:55;;;;;;;;;;;;;;;3.51;85.30;99418.88;1738526;82;25723;-56
2020/12/25 05:14:32;;;;;;;6.20;4.67;;;;;;;3.51;85.33;99417.00;1735650;82;25713;-57
2020/12/25 05:17:00;;;;;;;4.33;3.92;;;;;;;3.51;85.32;99424.23;1736039;82;25718;-54
2020/12/25 05:19:30;;;;;;;6.15;4.62;;;;;;;3.50;85.32;99430.64;1735810;81;25924;-54
2020/12/25 05:21:59;;;;;;;5.37;4.60;;;;;;;3.50;85.33;99438.67;1735811;82;25781;-55
2020/12/25 05:24:29;;;;;;;7.12;4.55;;;;;;;3.50;85.42;99440.00;1735877;82;25666;-55
2020/12/25 05:26:57;;;;;;;6.20;4.20;;;;;;;3.50;85.43;99445.35;1734702;81;26354;-57
2020/12/25 05:29:27;;;;;;;5.25;4.25;;;;;;;3.49;85.49;99451.77;1735564;82;25700;-57
2020/12/25 05:31:55;;;;;;;6.08;4.53;;;;;;;3.49;85.54;99457.93;1735722;82;25777;-55
2020/12/25 05:34:22;;;;;;;5.22;4.42;;;;;;;3.48;85.53;99456.33;1735655;82;26669;-54
2020/12/25 05:36:54;;;;;;;6.92;4.55;;;;;;;3.45;85.53;99462.23;1735934;81;25653;-55
2020/12/25 05:39:33;;;;;;;6.17;5.00;;;;;;;3.45;85.61;99467.58;1735548;82;25699;-55
2020/12/25 05:42:04;;;;;;;4.83;4.20;;;;;;;3.46;85.70;99473.74;1736216;82;26150;-55
2020/12/25 05:44:48;;;;;;;6.70;4.80;;;;;;;3.45;85.79;99474.81;1735760;82;25857;-55
2020/12/25 05:47:17;;;;;;;6.22;5.08;;;;;;;3.44;85.85;99479.89;1736209;82;26882;-56
2020/12/25 05:49:45;;;;;;;8.28;6.42;;;;;;;3.43;85.93;99479.09;1735613;82;25632;-55
2020/12/25 05:52:15;;;;;;;6.12;4.78;;;;;;;3.43;86.01;99481.77;1736118;82;25736;-55
2020/12/25 05:54:45;;;;;;;5.87;4.58;;;;;;;3.42;86.04;99485.52;1735590;82;26075;-55
2020/12/25 05:57:13;;;;;;;7.53;5.22;;;;;;;3.41;86.08;99484.48;1736111;82;26175;-54
2020/12/25 05:59:45;;;;;;;7.10;4.75;;;;;;;3.40;86.12;99493.02;1735682;82;25793;-56
2020/12/25 06:02:15;;;;;;;7.95;5.05;;;;;;;3.39;86.12;99503.48;1734935;81;25947;-55
2020/12/25 06:04:42;;;;;;;6.37;5.28;;;;;;;3.38;86.15;99505.87;1735123;82;25728;-56
2020/12/25 06:07:11;;;;;;;8.80;5.17;;;;;;;3.36;86.21;99510.71;1735138;82;25868;-55
2020/12/25 06:09:42;;;;;;;9.17;6.50;;;;;;;3.35;86.28;99520.62;1733939;81;61425;-56
2020/12/25 06:12:12;;;;;;;8.08;5.92;;;;;;;3.33;86.29;99519.28;1735396;82;25931;-55
2020/12/25 06:14:38;;;;;;;7.70;5.80;;;;;;;3.33;86.34;99525.42;1734925;82;25744;-55
2020/12/25 06:17:16;;;;;;;6.17;5.22;;;;;;;3.34;86.43;99532.92;1707610;82;25743;-54
2020/12/25 06:19:57;;;;;;;7.90;6.28;;;;;;;3.34;86.48;99540.39;1709625;83;25728;-55
2020/12/25 06:22:36;;;;;;;8.70;6.08;;;;;;;3.35;86.50;99539.84;1710161;83;26331;-55
2020/12/25 06:25:11;;;;;;;7.97;6.03;;;;;;;3.34;86.55;99549.75;1707911;82;27086;-54
2020/12/25 06:28:00;;;;;;;7.70;5.83;;;;;;;3.35;86.63;99557.23;1707605;83;25616;-55
2020/12/25 06:30:32;;;;;;;6.95;5.55;;;;;;;3.34;86.65;99560.45;1709888;83;26323;-55
2020/12/25 06:32:59;;;;;;;8.05;5.35;;;;;;;3.35;86.69;99561.23;1710149;83;25906;-55
2020/12/25 06:35:37;;;;;;;9.90;5.78;;;;;;;3.36;86.73;99578.34;1707877;82;25683;-54
2020/12/25 06:38:13;;;;;;;5.22;4.65;;;;;;;3.34;86.68;99583.17;1707332;83;25733;-55
2020/12/25 06:40:43;;;;;;;6.65;5.03;;;;;;;3.33;86.64;99574.87;1710215;83;25833;-54
2020/12/25 06:43:17;;;;;;;6.30;4.72;;;;;;;3.34;86.60;99571.69;1710624;83;26172;-56
2020/12/25 06:46:03;;;;;;;7.17;5.33;;;;;;;3.35;86.64;99573.27;1707286;83;25882;-56
2020/12/25 06:48:30;;;;;;;6.42;5.37;;;;;;;3.36;86.67;99581.55;1709967;83;25694;-55
2020/12/25 06:51:02;;;;;;;6.67;5.62;;;;;;;3.35;86.72;99576.75;1699483;83;27090;-56
2020/12/25 06:53:38;;;;;;;8.75;5.50;;;;;;;3.35;86.72;99583.95;1751059;81;25621;-53
2020/12/25 06:56:19;;;;;;;8.53;5.53;;;;;;;3.35;86.75;99590.64;1751244;81;25708;-54
2020/12/25 06:58:53;;;;;;;8.58;6.25;;;;;;;3.33;86.88;99584.23;1751165;81;25643;-55
2020/12/25 07:01:40;;;;;;;10.05;6.75;;;;;;;3.33;86.75;99594.92;1749412;81;25766;-54
2020/12/25 07:04:27;;;;;;;11.93;6.03;;;;;;;3.30;86.64;99593.34;1748973;81;25698;-55
2020/12/25 07:06:59;;;;;;;8.70;6.05;;;;;;;3.28;86.71;99604.86;1748852;81;25702;-55
2020/12/25 07:09:47;;;;;;;8.20;5.92;;;;;;;3.27;86.76;99606.75;1747421;81;25691;-55
2020/12/25 07:12:21;;;;;;;8.43;6.30;;;;;;;3.28;86.83;99610.99;1742242;81;25878;-55
2020/12/25 07:14:48;;;;;;;8.83;6.65;;;;;;;3.28;86.70;99614.22;1748760;81;25795;-55
2020/12/25 07:17:16;;;;;;;6.65;5.70;;;;;;;3.28;86.65;99625.70;1748983;81;26271;-54
2020/12/25 07:19:43;;;;;;;8.50;5.97;;;;;;;3.27;86.55;99629.98;1748867;81;25654;-57
2020/12/25 07:22:11;;;;;;;6.80;5.37;;;;;;;3.26;86.48;99629.73;1749018;81;25649;-54
2020/12/25 07:24:41;;;;;;;8.13;5.90;;;;;;;3.26;86.51;99639.88;1748999;81;25635;-54
2020/12/25 07:27:10;;;;;;;7.92;5.28;;;;;;;3.28;86.65;99644.41;1749045;81;25681;-56
2020/12/25 07:29:38;;;;;;;8.10;4.75;;;;;;;3.29;86.72;99648.69;1748929;81;25769;-55
2020/12/25 07:32:05;;;;;;;6.17;5.15;;;;;;;3.30;86.65;99649.48;1749208;81;26341;-54
2020/12/25 07:34:32;;;;;;;6.33;4.92;;;;;;;3.31;86.71;99650.55;1748734;81;25699;-53
2020/12/25 07:36:59;;;;;;;8.35;5.53;;;;;;;3.33;86.66;99651.61;1749240;81;26257;-54
2020/12/25 07:39:29;;;;;;;7.30;5.80;;;;;;;3.36;86.75;99659.08;1749050;81;25615;-55
2020/12/25 07:41:56;;;;;;;9.25;5.35;;;;;;;3.37;86.73;99660.66;1749391;81;25703;-57
2020/12/25 07:44:24;;;;;;;7.97;5.45;;;;;;;3.40;86.63;99673.48;1748821;81;25736;-57
2020/12/25 07:46:51;;;;;;;8.20;5.25;;;;;;;3.42;86.59;99667.86;1749272;81;25733;-57
2020/12/25 07:49:19;;;;;;;7.87;4.33;;;;;;;3.43;86.52;99663.58;1748970;81;25629;-56
2020/12/25 07:51:49;;;;;;;6.08;4.20;;;;;;;3.43;86.31;99666.25;1749098;81;25689;-56
2020/12/25 07:54:17;;;;;;;6.08;3.52;;;;;;;3.44;86.14;99669.20;1749117;81;25782;-56
2020/12/25 07:56:45;;;;;;;6.75;3.92;;;;;;;3.45;86.10;99675.34;1748877;81;25743;-55
2020/12/25 07:59:11;;;;;;;6.00;3.75;;;;;;;3.46;86.05;99671.60;1749074;81;25715;-56
2020/12/25 08:01:39;;;;;;;5.55;3.62;;;;;;;3.49;86.08;99689.74;1750467;81;25860;-54
2020/12/25 08:04:05;;;;;;;6.55;3.90;;;;;;;3.47;85.81;99692.69;1751119;81;25651;-55
2020/12/25 08:06:35;;;;;;;5.08;3.42;;;;;;;3.48;85.75;99690.84;1751036;81;27346;-55
2020/12/25 08:09:08;;;;;;;5.65;3.47;;;;;;;3.48;85.63;99692.96;1749446;80;25718;-54
2020/12/25 08:11:40;;;;;;;5.75;3.55;;;;;;;3.47;85.58;99694.02;1727632;81;25746;-55
2020/12/25 08:14:13;;;;;;;5.80;3.85;;;;;;;3.50;85.55;99705.52;1750858;81;26051;-55
2020/12/25 08:16:42;;;;;;;6.53;3.52;;;;;;;3.53;85.64;99710.31;1751286;81;25679;-54
2020/12/25 08:19:09;;;;;;;6.35;3.85;;;;;;;3.57;85.37;99717.24;1751239;81;26964;-55
2020/12/25 08:21:38;;;;;;;4.87;3.15;;;;;;;3.60;85.43;99714.57;1751210;81;25870;-54
2020/12/25 08:24:07;;;;;;;4.22;3.40;;;;;;;3.64;85.37;99721.74;1751328;81;25829;-55
2020/12/25 08:26:39;;;;;;;5.03;3.37;;;;;;;3.68;85.52;99721.47;1751168;81;26309;-55
2020/12/25 08:29:06;;;;;;;5.67;3.47;;;;;;;3.74;85.48;99720.34;1751256;81;25770;-55
2020/12/25 08:31:38;;;;;;;6.85;3.55;;;;;;;3.78;85.39;99714.45;1750932;81;26236;-55
2020/12/25 08:34:06;;;;;;;4.62;3.00;;;;;;;3.80;85.03;99725.66;1751217;81;26226;-53
2020/12/25 08:36:33;;;;;;;6.35;3.20;;;;;;;3.77;84.38;99723.02;1750822;81;25694;-55
2020/12/25 08:39:00;;;;;;;6.37;3.47;;;;;;;3.76;84.37;99727.30;1750477;81;25719;-54
2020/12/25 08:41:28;;;;;;;6.03;3.27;;;;;;;3.72;84.05;99735.88;1735547;81;25757;-55
2020/12/25 08:44:12;;;;;;;6.25;3.65;;;;;;;3.69;83.98;99738.31;1734872;82;27734;-54
2020/12/25 08:46:40;;;;;;;6.85;3.45;;;;;;;3.68;84.06;99735.39;1735228;82;25694;-54
2020/12/25 08:49:07;;;;;;;4.70;3.10;;;;;;;3.66;83.90;99738.34;1735282;82;25667;-54
2020/12/25 08:51:34;;;;;;;5.12;3.22;;;;;;;3.64;83.95;99743.14;1735243;82;26385;-56
2020/12/25 08:54:01;;;;;;;3.80;3.02;;;;;;;3.64;83.86;99741.80;1735323;82;26237;-55
2020/12/25 08:56:29;;;;;;;5.40;2.92;;;;;;;3.63;83.84;99752.26;1735466;82;25786;-55
2020/12/25 08:59:02;;;;;;;5.53;3.00;;;;;;;3.61;83.58;99749.06;1735479;82;25636;-54
2020/12/25 09:01:34;;;;;;;6.53;3.65;;;;;;;3.61;83.68;99742.89;1735072;82;25850;-55
2020/12/25 09:04:00;;;;;;;6.00;3.27;;;;;;;3.60;83.38;99741.31;1734568;82;25719;-56
2020/12/25 09:06:28;;;;;;;6.35;3.58;;;;;;;3.61;83.40;99750.41;1734822;82;26018;-56
2020/12/25 09:08:55;;;;;;;4.67;3.33;;;;;;;3.61;83.56;99748.25;1733713;82;26257;-56
2020/12/25 09:11:24;;;;;;;4.75;3.20;;;;;;;3.62;83.48;99755.99;1734686;82;25669;-54
2020/12/25 09:13:52;;;;;;;8.85;3.60;;;;;;;3.65;83.15;99755.45;1735204;82;25760;-56
2020/12/25 09:16:19;;;;;;;5.22;3.58;;;;;;;3.75;83.07;99785.37;1735013;82;25637;-56
2020/12/25 09:18:47;;;;;;;6.83;4.67;;;;;;;3.66;83.10;99764.27;1735324;82;25718;-56
2020/12/25 09:21:15;;;;;;;5.60;3.42;;;;;;;3.66;83.01;99768.28;1735203;82;25931;-55
2020/12/25 09:23:43;;;;;;;;;;;;;;;3.67;82.68;99770.68;1737587;82;25786;-55
2020/12/25 09:26:12;;;;;;;7.58;4.28;;;;;;;3.67;82.96;99776.03;1735115;82;25745;-53
2020/12/25 09:28:39;;;;;;;6.83;4.63;;;;;;;3.67;82.86;99772.02;1734958;82;25716;-54
2020/12/25 09:31:09;;;;;;;7.08;3.95;;;;;;;3.70;82.98;99766.67;1734785;82;25780;-54
2020/12/25 09:33:36;;;;;;;5.78;3.72;;;;;;;3.73;82.93;99769.59;1735179;82;26926;-55
2020/12/25 09:36:04;;;;;;;9.25;4.37;;;;;;;3.73;82.93;99769.59;1734900;82;25620;-56
2020/12/25 09:38:31;;;;;;;7.65;4.60;;;;;;;3.74;82.79;99767.16;1735230;82;26672;-54
2020/12/25 09:41:00;;;;;;;7.85;4.53;;;;;;;3.76;82.80;99766.88;1734930;82;25657;-55
2020/12/25 09:46:04;;;;;;;6.53;3.87;;;;;;;3.81;82.26;99770.87;1846708;76;35316;-57
2020/12/25 09:48:31;;;;;;;8.20;4.60;;;;;;;3.72;82.16;99781.35;1817152;78;26508;-55
2020/12/25 09:50:59;;;;;;;6.25;3.87;;;;;;;3.71;81.87;99785.64;1816552;78;26122;-55
2020/12/25 09:53:26;;;;;;;7.20;3.33;;;;;;;3.67;81.67;99784.05;1816820;78;25614;-55
2020/12/25 09:55:52;;;;;;;6.35;3.27;;;;;;;3.64;81.63;99788.61;1816802;78;25591;-55
2020/12/25 09:58:19;;;;;;;4.95;3.25;;;;;;;3.60;81.22;99790.25;1816797;78;26397;-54
2020/12/25 10:00:46;;;;;;;5.58;3.40;;;;;;;3.55;81.03;99789.72;1816818;78;25638;-56
2020/12/25 10:03:13;;;;;;;4.10;3.15;;;;;;;3.52;81.24;99794.30;1816914;78;26391;-54
2020/12/25 10:05:39;;;;;;;5.05;3.10;;;;;;;3.51;81.18;99792.69;1816610;78;26320;-55
2020/12/25 10:08:06;;;;;;;4.80;3.35;;;;;;;3.50;80.93;99799.10;1816981;78;25661;-55
2020/12/25 10:10:33;;;;;;;7.25;3.83;;;;;;;3.45;80.79;99795.66;1792674;78;25795;-56
2020/12/25 10:12:59;;;;;;;4.92;3.75;;;;;;;3.42;80.95;99802.88;1788512;79;25770;-54
2020/12/25 10:15:26;;;;;;;7.85;3.77;;;;;;;3.43;81.10;99811.18;1788233;80;26944;-55
2020/12/25 10:17:53;;;;;;;5.05;3.55;;;;;;;3.43;81.23;99811.18;1788576;80;25800;-55
2020/12/25 10:20:20;;;;;;;5.12;3.87;;;;;;;3.41;80.92;99811.45;1787893;79;25752;-54
2020/12/25 10:22:46;;;;;;;7.05;4.92;;;;;;;3.39;80.84;99820.80;1788499;80;25739;-56
2020/12/25 10:25:13;;;;;;;7.05;4.08;;;;;;;3.37;81.07;99823.74;1788084;80;25631;-56
2020/12/25 10:27:41;;;;;;;6.92;5.20;;;;;;;3.35;80.99;99822.70;1788394;80;26919;-55
2020/12/25 10:30:08;;;;;;;7.55;5.53;;;;;;;3.34;80.88;99821.64;1788043;80;25710;-55
2020/12/25 10:32:35;;;;;;;8.08;5.72;;;;;;;3.32;81.05;99820.57;1788392;79;25737;-55
2020/12/25 10:35:02;;;;;;;7.72;4.72;;;;;;;3.32;81.08;99824.58;1788220;80;25670;-54
2020/12/25 10:37:29;;;;;;;8.08;5.47;;;;;;;3.31;80.86;99829.66;1788400;80;26263;-56
2020/12/25 10:39:56;;;;;;;8.23;5.67;;;;;;;3.28;80.95;99827.52;1788122;80;26397;-56
2020/12/25 10:42:23;;;;;;;7.17;5.30;;;;;;;3.29;81.14;99831.02;1788398;80;25866;-54
2020/12/25 10:44:50;;;;;;;11.43;6.37;;;;;;;3.30;81.25;99830.74;1787296;80;25762;-55
2020/12/25 10:47:17;;;;;;;9.40;6.05;;;;;;;3.30;81.11;99830.74;1786651;80;25574;-54
2020/12/25 10:49:45;;;;;;;6.90;5.15;;;;;;;3.31;81.14;99828.86;1786155;79;26377;-56
2020/12/25 10:52:12;;;;;;;8.43;5.30;;;;;;;3.30;81.08;99829.92;1786860;80;32568;-56
2020/12/25 10:54:39;;;;;;;7.33;4.87;;;;;;;3.29;80.79;99836.36;1786013;79;25635;-55
2020/12/25 10:57:06;;;;;;;7.72;5.00;;;;;;;3.25;80.65;99836.10;1786198;80;25730;-55
2020/12/25 10:59:32;;;;;;;8.85;5.50;;;;;;;3.23;80.75;99836.88;1785776;80;25304;-55
2020/12/25 11:01:59;;;;;;;11.85;6.53;;;;;;;3.24;80.97;99835.83;1785461;80;26282;-54
2020/12/25 11:04:26;;;;;;;11.08;6.42;;;;;;;3.24;80.70;99838.50;1785524;80;25733;-57
2020/12/25 11:06:52;;;;;;;8.50;5.92;;;;;;;3.24;80.95;99842.51;1785259;79;25586;-55
2020/12/25 11:09:19;;;;;;;7.80;5.62;;;;;;;3.27;81.25;99840.64;1778013;80;25706;-56
2020/12/25 11:11:46;;;;;;;9.90;6.40;;;;;;;3.28;81.14;99846.23;1759579;80;26293;-54
2020/12/25 11:14:12;;;;;;;9.58;6.60;;;;;;;3.30;81.17;99847.30;1759067;80;26242;-55
2020/12/25 11:16:40;;;;;;;11.68;7.12;;;;;;;3.31;81.19;99849.70;1759531;80;26354;-56
2020/12/25 11:19:08;;;;;;;8.33;6.03;;;;;;;3.33;81.16;99844.88;1759289;81;25715;-56
2020/12/25 11:21:36;;;;;;;9.38;6.10;;;;;;;3.33;80.75;99839.53;1759521;80;25702;-56
2020/12/25 11:24:05;;;;;;;11.53;6.30;;;;;;;3.33;80.84;99838.19;1759278;81;25793;-55
2020/12/25 11:26:35;;;;;;;10.18;6.33;;;;;;;3.25;80.58;99827.26;1759625;81;25763;-55
2020/12/25 11:29:07;;;;;;;9.98;6.37;;;;;;;3.31;80.70;99835.55;1759468;80;25727;-56
2020/12/25 11:31:36;;;;;;;10.80;6.62;;;;;;;3.30;80.60;99833.93;1759154;81;25733;-56
2020/12/25 11:34:03;;;;;;;11.57;6.83;;;;;;;3.29;80.48;99833.69;1759685;80;25678;-56
2020/12/25 11:36:33;;;;;;;11.30;7.08;;;;;;;3.30;80.78;99839.28;1759244;80;25763;-55
2020/12/25 11:39:01;;;;;;;10.65;6.65;;;;;;;3.31;80.65;99836.88;1759503;80;25602;-56
2020/12/25 11:41:28;;;;;;;14.53;7.45;;;;;;;3.30;80.55;99847.30;1759291;81;27305;-56
2020/12/25 11:43:55;;;;;;;10.85;7.22;;;;;;;3.30;80.60;99844.11;1759340;81;25761;-55
2020/12/25 11:46:23;;;;;;;9.60;6.47;;;;;;;3.30;80.60;99846.78;1759348;80;25670;-56
2020/12/25 11:48:53;;;;;;;9.93;5.75;;;;;;;3.31;80.77;99840.89;1759270;80;25653;-56